Newport (Isle of Wight), United Kingdom
Current Conditions -  °F | °C
As of 9:50 PM on Friday 21 Nov 2014 (Local Time) from EGHI Reporting Station
Broken Clouds Broken Clouds  
Wind Chill: 52°   Ceiling: 1000
Heat Index: 52°   Visibility: 5mi
Dew Point: 50°   Wind: 8mph
Humidity: 94%   Direction: 140°SE
Pressure: 29.88"   Gusts: NA
Location:  50.7°N, 1.29°W
Report Text: EGHI 212150Z 14007KT 100V180 8000 BKN010 11/10 Q1012
Loading
Personal Weather Stations






























Interactive Weather Map New forecast layout! Learn more

10-Day Weather Forecast

Advertisements
Track Severe Weather on mobile